createdAt,value
2018-04-16T00:00:39.979Z,70.62
2018-04-16T00:03:07.514Z,72.03
2018-04-16T00:05:35.029Z,72.36
2018-04-16T00:08:02.538Z,72.83
2018-04-16T00:10:30.066Z,73.04
2018-04-16T00:12:57.593Z,72.92
2018-04-16T00:15:25.099Z,72.45
2018-04-16T00:17:52.630Z,72.14
2018-04-16T00:20:20.134Z,72.26
2018-04-16T00:22:47.634Z,72.28
2018-04-16T00:25:15.162Z,72.51
2018-04-16T00:27:42.666Z,72.75
2018-04-16T00:30:10.162Z,72.50
2018-04-16T00:32:43.271Z,73.03
2018-04-16T00:35:16.477Z,73.33
2018-04-16T00:37:49.675Z,73.86
2018-04-16T00:40:22.742Z,73.85
2018-04-16T00:42:55.886Z,73.69
2018-04-16T00:45:28.989Z,72.99
2018-04-16T00:48:03.138Z,72.58
2018-04-16T00:50:36.099Z,72.33
2018-04-16T00:53:09.239Z,72.29
2018-04-16T00:55:42.411Z,71.84
2018-04-16T00:58:15.425Z,71.61
2018-04-16T01:00:48.464Z,71.58
2018-04-16T01:03:21.527Z,71.82
2018-04-16T01:05:54.628Z,71.60
2018-04-16T01:08:27.773Z,71.06
2018-04-16T01:11:00.765Z,71.08
2018-04-16T01:16:36.998Z,70.40
2018-04-16T01:19:10.226Z,70.45
2018-04-16T01:21:43.290Z,70.25
2018-04-16T01:27:20.577Z,70.27
2018-04-16T01:29:53.648Z,70.18
2018-04-16T01:32:26.790Z,70.05
2018-04-16T01:34:59.926Z,69.92
2018-04-16T01:37:32.959Z,70.29
2018-04-16T01:40:06.002Z,69.75
2018-04-16T01:42:40.352Z,69.48
2018-04-16T01:45:13.454Z,69.69
2018-04-16T01:47:46.513Z,69.63
2018-04-16T01:50:19.678Z,69.69
2018-04-16T01:52:52.674Z,69.62
2018-04-16T01:55:25.698Z,69.70
2018-04-16T02:01:04.863Z,69.84
2018-04-16T02:03:37.972Z,69.80
2018-04-16T02:06:11.127Z,69.82
2018-04-16T02:08:44.142Z,69.91
2018-04-16T02:11:17.300Z,70.14
2018-04-16T02:13:50.339Z,70.08
2018-04-16T02:16:23.501Z,70.29
2018-04-16T02:18:56.580Z,70.72
2018-04-16T02:21:29.702Z,70.90
2018-04-16T02:24:02.754Z,71.48
2018-04-16T02:26:35.869Z,72.06
2018-04-16T02:29:08.861Z,72.10
2018-04-16T02:31:42.020Z,72.45
2018-04-16T02:34:15.120Z,72.70
2018-04-16T02:36:48.270Z,72.75
2018-04-16T02:39:21.321Z,72.82
2018-04-16T02:41:54.509Z,72.99
2018-04-16T02:44:27.679Z,73.40
2018-04-16T02:47:00.801Z,74.38
2018-04-16T02:49:33.788Z,73.70
2018-04-16T02:52:07.018Z,73.61
2018-04-16T02:54:40.102Z,73.71
2018-04-16T03:00:17.880Z,74.16
2018-04-16T03:02:50.897Z,74.38
2018-04-16T03:05:24.072Z,74.30
2018-04-16T03:07:57.098Z,74.32
2018-04-16T03:10:31.310Z,74.02
2018-04-16T03:13:04.894Z,73.95
2018-04-16T03:15:37.909Z,74.29
2018-04-16T03:18:10.912Z,75.06
2018-04-16T03:20:44.060Z,74.77
2018-04-16T03:23:17.375Z,74.96
2018-04-16T03:25:50.537Z,74.49
2018-04-16T03:28:23.593Z,74.55
2018-04-16T03:30:57.006Z,74.93
2018-04-16T03:33:30.067Z,74.94
2018-04-16T03:36:03.267Z,75.02
2018-04-16T03:38:41.113Z,74.75
2018-04-16T03:41:14.320Z,74.53
2018-04-16T03:43:47.541Z,74.25
2018-04-16T03:46:21.176Z,74.02
2018-04-16T03:48:54.366Z,74.10
2018-04-16T03:51:24.530Z,74.10
2018-04-16T03:53:53.009Z,74.23
2018-04-16T03:56:20.967Z,74.28
2018-04-16T03:58:48.482Z,74.35
2018-04-16T04:01:16.907Z,74.31
2018-04-16T04:03:44.614Z,74.29
2018-04-16T04:06:12.214Z,74.56
2018-04-16T04:08:39.713Z,74.28
2018-04-16T04:11:07.254Z,74.24
2018-04-16T04:13:34.747Z,74.20
2018-04-16T04:16:02.247Z,73.61
2018-04-16T04:18:29.774Z,73.67
2018-04-16T04:20:57.265Z,73.65
2018-04-16T04:23:37.511Z,73.69
2018-04-16T04:26:16.782Z,73.72
2018-04-16T04:28:55.998Z,73.86
2018-04-16T04:31:23.501Z,73.93
2018-04-16T04:33:51.015Z,74.27
2018-04-16T04:36:18.546Z,74.19
2018-04-16T04:38:46.037Z,74.41
2018-04-16T04:41:13.542Z,74.56
2018-04-16T04:43:41.069Z,74.74
2018-04-16T04:46:08.561Z,74.80
2018-04-16T04:48:36.053Z,75.06
2018-04-16T04:51:03.565Z,75.19
2018-04-16T04:53:31.078Z,75.22
2018-04-16T04:55:58.623Z,75.40
2018-04-16T04:58:26.141Z,75.51
2018-04-16T05:00:53.727Z,75.64
2018-04-16T05:03:21.164Z,76.00
2018-04-16T05:05:48.692Z,75.77
2018-04-16T05:08:16.212Z,76.15
2018-04-16T05:10:43.714Z,75.99
2018-04-16T05:13:11.272Z,76.54
2018-04-16T05:15:38.771Z,76.68
2018-04-16T05:18:06.301Z,77.05
2018-04-16T05:20:33.822Z,76.97
2018-04-16T05:23:01.308Z,77.38
2018-04-16T05:25:28.806Z,77.32
2018-04-16T05:27:56.331Z,77.56
2018-04-16T05:30:23.835Z,76.84
2018-04-16T05:32:51.324Z,77.25
2018-04-16T05:35:18.900Z,77.17
2018-04-16T05:37:46.393Z,77.86
2018-04-16T05:40:13.884Z,77.75
2018-04-16T05:42:41.405Z,78.65
2018-04-16T05:45:08.902Z,79.98
2018-04-16T05:47:36.408Z,79.88
2018-04-16T05:50:03.926Z,79.52
2018-04-16T05:52:31.422Z,79.52
2018-04-16T05:54:58.908Z,79.54
2018-04-16T05:57:26.422Z,79.99
2018-04-16T05:59:53.925Z,80.45
2018-04-16T06:02:21.419Z,79.59
2018-04-16T06:04:48.947Z,79.39
2018-04-16T06:07:16.440Z,78.33
2018-04-16T06:09:43.928Z,78.63
2018-04-16T06:12:11.453Z,78.57
2018-04-16T06:14:38.953Z,78.82
2018-04-16T06:17:06.480Z,79.01
2018-04-16T06:19:34.003Z,78.80
2018-04-16T06:22:01.496Z,78.69
2018-04-16T06:24:28.998Z,78.45
2018-04-16T06:26:56.538Z,78.63
2018-04-16T06:29:24.036Z,78.73
2018-04-16T06:31:51.534Z,78.21
2018-04-16T06:34:19.049Z,78.82
2018-04-16T06:36:46.851Z,78.85
2018-04-16T06:39:14.350Z,79.26
2018-04-16T06:41:41.877Z,79.92
2018-04-16T06:44:09.382Z,79.37
2018-04-16T06:46:36.881Z,79.84
2018-04-16T06:49:04.401Z,79.68
2018-04-16T06:51:31.897Z,79.86
2018-04-16T06:53:59.413Z,79.30
2018-04-16T06:56:27.195Z,79.54
2018-04-16T06:58:54.781Z,79.73
2018-04-16T07:01:22.347Z,79.13
2018-04-16T07:03:49.921Z,78.59
2018-04-16T07:06:17.423Z,77.45
2018-04-16T07:08:45.947Z,77.75
2018-04-16T07:11:13.481Z,77.36
2018-04-16T07:13:40.982Z,77.44
2018-04-16T07:16:08.493Z,77.52
2018-04-16T07:18:36.046Z,76.84
2018-04-16T07:21:03.571Z,75.57
2018-04-16T07:23:31.083Z,76.80
2018-04-16T07:25:58.609Z,76.67
2018-04-16T07:28:26.111Z,76.48
2018-04-16T07:30:53.603Z,76.17
2018-04-16T07:33:21.137Z,75.91
2018-04-16T07:35:48.634Z,76.04
2018-04-16T07:38:16.128Z,75.34
2018-04-16T07:40:43.645Z,75.93
2018-04-16T07:43:11.206Z,75.87
2018-04-16T07:45:38.709Z,76.12
2018-04-16T07:48:06.417Z,75.36
2018-04-16T07:50:33.932Z,74.50
2018-04-16T07:53:01.421Z,74.09
2018-04-16T07:55:28.941Z,73.13
2018-04-16T07:57:56.449Z,73.31
2018-04-16T08:00:23.945Z,72.97
2018-04-16T08:02:51.465Z,72.59
2018-04-16T08:05:18.957Z,71.82
2018-04-16T08:07:47.343Z,71.58
2018-04-16T08:10:14.861Z,71.20
2018-04-16T08:12:42.434Z,71.56
2018-04-16T08:15:09.942Z,71.00
2018-04-16T08:17:37.635Z,69.90
2018-04-16T08:20:05.225Z,69.87
2018-04-16T08:22:33.609Z,71.26
2018-04-16T08:25:01.129Z,70.51
2018-04-16T08:27:28.631Z,70.20
2018-04-16T08:29:56.127Z,69.74
2018-04-16T08:32:23.731Z,68.51
2018-04-16T08:34:51.268Z,68.94
2018-04-16T08:37:18.784Z,67.87
2018-04-16T08:39:46.335Z,66.85
2018-04-16T08:42:13.875Z,66.91
2018-04-16T08:44:41.384Z,66.05
2018-04-16T08:47:08.926Z,65.59
2018-04-16T08:49:36.421Z,65.99
2018-04-16T08:52:04.018Z,65.18
2018-04-16T08:54:31.660Z,63.03
2018-04-16T08:57:00.805Z,62.12
2018-04-16T08:59:28.394Z,61.90
2018-04-16T09:01:55.989Z,61.95
2018-04-16T09:04:23.485Z,62.41
2018-04-16T09:06:50.985Z,63.44
2018-04-16T09:09:18.513Z,63.08
2018-04-16T09:11:46.277Z,62.84
2018-04-16T09:14:13.893Z,64.52
2018-04-16T09:16:41.416Z,64.71
2018-04-16T09:19:08.915Z,64.03
2018-04-16T09:21:36.418Z,64.02
2018-04-16T09:24:03.951Z,62.55
2018-04-16T09:26:31.451Z,63.39
2018-04-16T09:28:58.949Z,63.49
2018-04-16T09:31:26.474Z,63.52
2018-04-16T09:33:53.982Z,64.28
2018-04-16T09:36:21.476Z,63.87
2018-04-16T09:38:49.006Z,64.36
2018-04-16T09:41:16.502Z,64.60
2018-04-16T09:43:43.998Z,64.35
2018-04-16T09:46:12.982Z,66.02
2018-04-16T09:48:40.485Z,65.53
2018-04-16T09:51:07.977Z,65.99
2018-04-16T09:53:35.493Z,66.48
2018-04-16T09:56:02.990Z,67.29
2018-04-16T09:58:30.535Z,67.11
2018-04-16T10:00:59.276Z,66.64
2018-04-16T10:03:26.769Z,65.99
2018-04-16T10:05:54.283Z,66.76
2018-04-16T10:08:21.830Z,66.40
2018-04-16T10:10:49.333Z,66.01
2018-04-16T10:13:16.830Z,66.30
2018-04-16T10:15:44.470Z,65.64
2018-04-16T10:18:11.996Z,65.71
2018-04-16T10:20:39.515Z,66.03
2018-04-16T10:23:07.072Z,63.47
2018-04-16T10:25:34.632Z,63.25
2018-04-16T10:28:02.229Z,63.63
2018-04-16T10:30:29.840Z,61.76
2018-04-16T10:32:57.552Z,62.70
2018-04-16T10:35:25.137Z,61.72
2018-04-16T10:37:52.698Z,62.62
2018-04-16T10:40:20.215Z,60.49
2018-04-16T10:42:47.781Z,60.94
2018-04-16T10:45:15.385Z,60.48
2018-04-16T10:47:43.054Z,60.66
2018-04-16T10:50:10.585Z,60.03
2018-04-16T10:52:38.166Z,58.62
2018-04-16T10:55:05.662Z,56.93
2018-04-16T10:57:33.169Z,57.82
2018-04-16T11:00:00.759Z,57.80
2018-04-16T11:02:28.327Z,57.00
2018-04-16T11:04:55.975Z,56.71
2018-04-16T11:07:23.639Z,56.04
2018-04-16T11:09:52.712Z,55.17
2018-04-16T11:12:20.211Z,54.44
2018-04-16T11:14:47.797Z,54.04
2018-04-16T11:17:15.333Z,53.16
2018-04-16T11:19:42.938Z,53.65
2018-04-16T11:22:10.477Z,53.02
2018-04-16T11:24:37.970Z,52.46
2018-04-16T11:27:06.423Z,52.11
2018-04-16T11:29:33.957Z,50.90
2018-04-16T11:32:02.264Z,49.83
2018-04-16T11:34:29.766Z,51.68
2018-04-16T11:36:57.309Z,50.92
2018-04-16T11:39:25.410Z,52.30
2018-04-16T11:41:52.935Z,52.65
2018-04-16T11:44:20.456Z,51.78
2018-04-16T11:46:47.955Z,51.95
2018-04-16T11:49:15.447Z,53.77
2018-04-16T11:51:43.284Z,55.26
2018-04-16T11:54:10.982Z,55.57
2018-04-16T11:56:38.505Z,53.74
2018-04-16T11:59:06.042Z,53.25
2018-04-16T12:01:33.543Z,54.68
2018-04-16T12:04:01.046Z,55.50
2018-04-16T12:06:28.571Z,55.15
2018-04-16T12:08:56.065Z,53.83
2018-04-16T12:11:23.562Z,51.08
2018-04-16T12:13:51.115Z,51.92
2018-04-16T12:16:18.641Z,52.31
2018-04-16T12:18:46.151Z,53.82
2018-04-16T12:21:13.682Z,52.65
2018-04-16T12:23:41.181Z,51.13
2018-04-16T12:26:08.696Z,51.60
2018-04-16T12:28:36.229Z,51.87
2018-04-16T12:31:03.729Z,50.13
2018-04-16T12:33:31.228Z,51.67
2018-04-16T12:35:58.754Z,51.55
2018-04-16T12:38:26.262Z,51.93
2018-04-16T12:40:53.790Z,50.54
2018-04-16T12:43:21.319Z,50.95
2018-04-16T12:45:48.813Z,50.71
2018-04-16T12:48:16.324Z,50.20
2018-04-16T12:50:43.847Z,51.17
2018-04-16T12:53:12.234Z,52.12
2018-04-16T12:55:40.078Z,52.23
2018-04-16T12:58:07.603Z,52.69
2018-04-16T13:00:35.104Z,53.74
2018-04-16T13:03:02.606Z,53.70
2018-04-16T13:05:30.126Z,52.78
2018-04-16T13:07:57.624Z,52.70
2018-04-16T13:10:25.138Z,51.58
2018-04-16T13:12:52.671Z,51.52
2018-04-16T13:15:20.170Z,52.23
2018-04-16T13:17:47.706Z,52.74
2018-04-16T13:20:15.286Z,51.68
2018-04-16T13:22:42.874Z,51.87
2018-04-16T13:25:10.453Z,52.15
2018-04-16T13:27:38.034Z,53.05
2018-04-16T13:30:05.542Z,53.22
2018-04-16T13:32:33.045Z,52.73
2018-04-16T13:35:00.566Z,52.11
2018-04-16T13:37:28.075Z,51.96
2018-04-16T13:39:55.584Z,51.86
2018-04-16T13:42:23.317Z,51.92
2018-04-16T13:44:50.861Z,50.50
2018-04-16T13:47:18.355Z,50.72
2018-04-16T13:49:45.915Z,50.80
2018-04-16T13:52:13.409Z,50.25
2018-04-16T13:54:40.908Z,50.12
2018-04-16T13:57:08.426Z,49.41
2018-04-16T13:59:35.920Z,47.64
2018-04-16T14:02:03.456Z,47.16
2018-04-16T14:04:31.001Z,48.79
2018-04-16T14:06:58.503Z,48.08
2018-04-16T14:09:26.001Z,49.45
2018-04-16T14:11:53.716Z,51.36
2018-04-16T14:14:21.208Z,50.97
2018-04-16T14:16:48.836Z,51.25
2018-04-16T14:19:16.433Z,51.30
2018-04-16T14:21:43.964Z,51.34
2018-04-16T14:24:11.469Z,52.13
2018-04-16T14:26:39.074Z,51.82
2018-04-16T14:29:06.642Z,51.52
2018-04-16T14:31:34.236Z,51.09
2018-04-16T14:34:01.854Z,50.58
2018-04-16T14:36:29.348Z,52.84
2018-04-16T14:38:58.305Z,52.68
2018-04-16T14:41:25.966Z,53.38
2018-04-16T14:43:53.449Z,52.62
2018-04-16T14:46:20.952Z,53.49
2018-04-16T14:48:48.513Z,51.33
2018-04-16T14:51:16.026Z,50.20
2018-04-16T14:53:43.613Z,50.09
2018-04-16T14:56:11.208Z,50.09
2018-04-16T14:58:38.734Z,50.53
2018-04-16T15:01:06.320Z,49.28
2018-04-16T15:03:33.916Z,50.61
2018-04-16T15:06:01.411Z,50.68
2018-04-16T15:08:29.016Z,50.71
2018-04-16T15:10:56.570Z,49.96
2018-04-16T15:13:24.159Z,49.80
2018-04-16T15:15:51.759Z,49.18
2018-04-16T15:18:19.362Z,50.61
2018-04-16T15:20:47.721Z,51.06
2018-04-16T15:23:16.216Z,52.65
2018-04-16T15:25:43.878Z,53.21
2018-04-16T15:28:11.415Z,53.97
2018-04-16T15:30:38.929Z,54.67
2018-04-16T15:33:06.499Z,55.53
2018-04-16T15:35:33.994Z,55.86
2018-04-16T15:38:01.495Z,56.39
2018-04-16T15:40:29.009Z,56.54
2018-04-16T15:42:56.498Z,56.37
2018-04-16T15:45:24.007Z,56.54
2018-04-16T15:47:51.602Z,55.74
2018-04-16T15:50:19.181Z,55.66
2018-04-16T15:52:47.646Z,55.40
2018-04-16T15:55:15.175Z,55.28
2018-04-16T15:57:42.677Z,55.24
2018-04-16T16:00:10.238Z,55.42
2018-04-16T16:02:37.786Z,55.06
2018-04-16T16:05:05.407Z,54.89
2018-04-16T16:07:32.990Z,54.75
2018-04-16T16:10:00.616Z,54.40
2018-04-16T16:12:28.185Z,53.96
2018-04-16T16:14:55.750Z,53.71
2018-04-16T16:17:23.308Z,53.60
2018-04-16T16:19:50.796Z,54.13
2018-04-16T16:22:18.361Z,55.24
2018-04-16T16:24:45.906Z,55.53
2018-04-16T16:27:13.449Z,55.81
2018-04-16T16:29:40.949Z,56.05
2018-04-16T16:32:08.465Z,55.32
2018-04-16T16:34:36.025Z,55.16
2018-04-16T16:37:03.496Z,55.38
2018-04-16T16:39:31.046Z,55.92
2018-04-16T16:41:58.549Z,55.87
2018-04-16T16:44:26.058Z,55.98
2018-04-16T16:46:53.578Z,56.33
2018-04-16T16:49:21.073Z,56.40
2018-04-16T16:51:48.561Z,57.36
2018-04-16T16:54:16.090Z,57.63
2018-04-16T16:56:43.597Z,58.10
2018-04-16T16:59:11.089Z,58.93
2018-04-16T17:01:38.610Z,59.25
2018-04-16T17:04:06.113Z,59.67
2018-04-16T17:06:33.610Z,59.93
2018-04-16T17:09:01.128Z,60.51
2018-04-16T17:11:28.636Z,60.49
2018-04-16T17:13:56.176Z,60.71
2018-04-16T17:16:23.693Z,60.37
2018-04-16T17:18:51.187Z,60.58
2018-04-16T17:21:18.683Z,61.09
2018-04-16T17:23:46.201Z,61.75
2018-04-16T17:26:13.702Z,62.23
2018-04-16T17:28:41.193Z,62.46
2018-04-16T17:31:08.729Z,62.31
2018-04-16T17:33:36.220Z,62.65
2018-04-16T17:36:03.705Z,62.51
2018-04-16T17:38:31.230Z,62.41
2018-04-16T17:40:58.718Z,62.87
2018-04-16T17:43:26.204Z,62.67
2018-04-16T17:45:53.721Z,62.85
2018-04-16T17:48:21.282Z,62.73
2018-04-16T17:50:48.750Z,63.02
2018-04-16T17:53:16.273Z,63.24
2018-04-16T17:55:43.912Z,63.54
2018-04-16T17:58:11.390Z,63.26
2018-04-16T18:00:38.903Z,63.64
2018-04-16T18:03:06.415Z,63.88
2018-04-16T18:05:33.923Z,64.59
2018-04-16T18:08:01.433Z,64.41
2018-04-16T18:10:28.931Z,64.48
2018-04-16T18:12:56.417Z,64.35
2018-04-16T18:15:24.095Z,64.62
2018-04-16T18:17:51.722Z,64.87
2018-04-16T18:20:19.419Z,65.11
2018-04-16T18:22:47.117Z,65.38
2018-04-16T18:25:14.609Z,65.63
2018-04-16T18:27:42.108Z,65.96
2018-04-16T18:30:09.638Z,66.38
2018-04-16T18:32:37.138Z,66.48
2018-04-16T18:35:04.637Z,66.62
2018-04-16T18:37:32.157Z,66.85
2018-04-16T18:39:59.661Z,67.04
2018-04-16T18:42:27.158Z,67.21
2018-04-16T18:44:54.682Z,67.40
2018-04-16T18:47:22.205Z,67.66
2018-04-16T18:49:49.709Z,67.62
2018-04-16T18:52:17.241Z,67.81
2018-04-16T18:54:44.801Z,68.50
2018-04-16T18:57:12.288Z,68.42
2018-04-16T18:59:39.856Z,69.01
2018-04-16T19:02:07.346Z,68.81
2018-04-16T19:04:34.838Z,69.54
2018-04-16T19:07:02.350Z,70.52
2018-04-16T19:09:29.843Z,71.13
2018-04-16T19:11:57.333Z,71.16
2018-04-16T19:14:24.853Z,71.71
2018-04-16T19:16:52.345Z,71.92
2018-04-16T19:19:19.841Z,72.45
2018-04-16T19:21:52.857Z,73.40
2018-04-16T19:24:20.374Z,73.65
2018-04-16T19:26:53.542Z,74.01
2018-04-16T19:29:21.032Z,74.75
2018-04-16T19:31:48.705Z,74.99
2018-04-16T19:34:21.989Z,75.24
2018-04-16T19:36:49.481Z,75.02
2018-04-16T19:39:16.983Z,75.23
2018-04-16T19:41:50.101Z,75.67
2018-04-16T19:44:17.596Z,75.84
2018-04-16T19:46:45.086Z,76.25
2018-04-16T19:49:19.373Z,75.60
2018-04-16T19:51:46.892Z,75.26
2018-04-16T19:54:14.518Z,75.17
2018-04-16T19:56:47.597Z,75.42
2018-04-16T19:59:15.083Z,74.63
2018-04-16T20:01:42.580Z,74.79
2018-04-16T20:04:10.097Z,74.95
2018-04-16T20:06:37.597Z,75.02
2018-04-16T20:09:06.038Z,74.62
2018-04-16T20:11:33.574Z,74.25
2018-04-16T20:14:01.207Z,73.97
2018-04-16T20:16:28.704Z,73.76
2018-04-16T20:18:56.242Z,73.50
2018-04-16T20:21:23.753Z,73.93
2018-04-16T20:23:51.284Z,73.92
2018-04-16T20:26:18.805Z,74.27
2018-04-16T20:28:46.313Z,74.53
2018-04-16T20:31:13.826Z,74.15
2018-04-16T20:33:41.350Z,74.68
2018-04-16T20:36:08.890Z,74.51
2018-04-16T20:38:36.393Z,73.93
2018-04-16T20:41:03.924Z,73.71
2018-04-16T20:43:31.443Z,73.64
2018-04-16T20:45:58.975Z,73.72
2018-04-16T20:48:26.510Z,73.55
2018-04-16T20:50:54.026Z,73.57
2018-04-16T20:53:21.538Z,73.55
2018-04-16T20:55:49.062Z,73.48
2018-04-16T20:58:16.604Z,73.56
2018-04-16T21:00:44.101Z,73.60
2018-04-16T21:03:11.634Z,74.02
2018-04-16T21:05:39.181Z,74.50
2018-04-16T21:08:06.728Z,74.60
2018-04-16T21:10:34.311Z,74.77
2018-04-16T21:13:01.882Z,75.04
2018-04-16T21:15:29.449Z,75.57
2018-04-16T21:17:57.986Z,75.88
2018-04-16T21:20:25.557Z,75.88
2018-04-16T21:22:53.109Z,76.35
2018-04-16T21:25:20.685Z,76.65
2018-04-16T21:27:48.247Z,76.51
2018-04-16T21:30:15.810Z,76.42
2018-04-16T21:32:43.393Z,76.16
2018-04-16T21:35:10.996Z,76.24
2018-04-16T21:37:38.549Z,76.08
2018-04-16T21:40:06.133Z,75.99
2018-04-16T21:42:33.685Z,75.90
2018-04-16T21:45:01.245Z,76.00
2018-04-16T21:47:28.833Z,76.10
2018-04-16T21:49:56.396Z,76.01
2018-04-16T21:52:23.961Z,76.09
2018-04-16T21:54:51.545Z,76.28
2018-04-16T21:57:19.134Z,76.46
2018-04-16T21:59:46.692Z,76.62
2018-04-16T22:02:14.304Z,76.68
2018-04-16T22:04:41.868Z,76.69
2018-04-16T22:07:10.613Z,76.84
2018-04-16T22:09:38.192Z,76.83
2018-04-16T22:12:05.739Z,76.76
2018-04-16T22:14:33.349Z,77.37
2018-04-16T22:17:00.945Z,77.26
2018-04-16T22:19:28.506Z,77.83
2018-04-16T22:21:56.060Z,77.85
2018-04-16T22:24:23.647Z,77.95
2018-04-16T22:26:51.207Z,77.56
2018-04-16T22:29:18.756Z,77.51
2018-04-16T22:31:46.338Z,77.36
2018-04-16T22:34:13.897Z,77.16
2018-04-16T22:36:41.462Z,77.07
2018-04-16T22:39:09.037Z,77.01
2018-04-16T22:41:36.585Z,76.99
2018-04-16T22:44:04.143Z,76.90
2018-04-16T22:46:31.728Z,76.85
2018-04-16T22:48:59.280Z,77.00
2018-04-16T22:51:26.832Z,76.86
2018-04-16T22:53:54.424Z,77.03
2018-04-16T22:56:21.976Z,77.04
2018-04-16T22:58:49.532Z,77.21
2018-04-16T23:01:17.113Z,77.16
2018-04-16T23:03:44.680Z,77.16
2018-04-16T23:06:12.304Z,77.20
2018-04-16T23:08:39.890Z,77.25
2018-04-16T23:11:07.453Z,77.24
2018-04-16T23:13:35.026Z,77.23
2018-04-16T23:16:02.605Z,77.29
2018-04-16T23:18:30.165Z,77.21
2018-04-16T23:20:57.716Z,77.37
2018-04-16T23:23:25.311Z,77.52
2018-04-16T23:25:52.882Z,77.55
2018-04-16T23:28:20.437Z,77.95
2018-04-16T23:30:48.024Z,78.00
2018-04-16T23:33:15.586Z,78.07
2018-04-16T23:35:43.177Z,78.42
2018-04-16T23:38:10.760Z,78.81
2018-04-16T23:40:38.313Z,79.13
2018-04-16T23:43:05.878Z,79.39
2018-04-16T23:45:33.465Z,79.68
2018-04-16T23:48:01.035Z,79.74
2018-04-16T23:50:28.598Z,80.35
2018-04-16T23:52:56.181Z,80.61
2018-04-16T23:55:23.736Z,80.61
2018-04-16T23:57:51.294Z,80.75
